createdAt,value
2023-03-31T00:00:11.850Z,10.30
2023-03-31T00:03:38.766Z,10.40
2023-03-31T00:07:01.083Z,10.50
2023-03-31T00:10:23.678Z,10.50
2023-03-31T00:13:45.827Z,10.60
2023-03-31T00:17:11.639Z,10.60
2023-03-31T00:20:33.775Z,10.60
2023-03-31T00:24:01.613Z,10.60
2023-03-31T00:27:23.568Z,10.60
2023-03-31T00:30:47.519Z,10.60
2023-03-31T00:34:09.542Z,10.50
2023-03-31T00:37:33.811Z,10.40
2023-03-31T00:40:56.745Z,10.50
2023-03-31T00:44:25.498Z,10.40
2023-03-31T00:48:17.031Z,10.30
2023-03-31T00:51:39.342Z,10.30
2023-03-31T00:55:08.559Z,10.20
2023-03-31T00:58:33.370Z,10.20
2023-03-31T01:01:59.349Z,10.20
2023-03-31T01:05:37.024Z,10.10
2023-03-31T01:08:59.835Z,10.00
2023-03-31T01:12:22.906Z,10.00
2023-03-31T01:15:49.378Z,9.90
2023-03-31T01:19:27.853Z,9.80
2023-03-31T01:23:08.447Z,9.70
2023-03-31T01:26:49.164Z,9.60
2023-03-31T01:30:55.669Z,9.60
2023-03-31T01:34:36.449Z,9.50
2023-03-31T01:38:16.516Z,9.40
2023-03-31T01:41:55.540Z,9.50
2023-03-31T01:45:23.356Z,9.40
2023-03-31T01:49:14.929Z,9.50
2023-03-31T01:53:03.943Z,9.60
2023-03-31T01:56:40.528Z,9.60
2023-03-31T02:00:09.785Z,9.60
2023-03-31T02:03:41.196Z,9.60
2023-03-31T02:07:12.160Z,9.50
2023-03-31T02:10:36.338Z,9.50
2023-03-31T02:14:02.054Z,9.40
2023-03-31T02:17:30.475Z,9.40
2023-03-31T02:20:54.873Z,9.50
2023-03-31T02:24:19.749Z,9.40
2023-03-31T02:27:51.784Z,9.40
2023-03-31T02:31:39.688Z,9.40
2023-03-31T02:35:02.658Z,9.40
2023-03-31T02:38:24.841Z,9.30
2023-03-31T02:41:47.149Z,9.20
2023-03-31T02:45:53.526Z,9.00
2023-03-31T02:49:17.976Z,8.90
2023-03-31T02:52:53.234Z,8.80
2023-03-31T02:56:24.372Z,8.80
2023-03-31T02:59:58.653Z,8.80
2023-03-31T03:03:23.608Z,8.90
2023-03-31T03:06:57.973Z,9.00
2023-03-31T03:11:04.543Z,9.00
2023-03-31T03:14:48.143Z,9.10
2023-03-31T03:18:10.641Z,9.20
2023-03-31T03:21:33.264Z,9.30
2023-03-31T03:24:55.465Z,9.30
2023-03-31T03:28:17.847Z,9.40
2023-03-31T03:31:39.920Z,9.50
2023-03-31T03:35:03.430Z,9.50
2023-03-31T03:38:25.540Z,9.60
2023-03-31T03:41:47.699Z,9.60
2023-03-31T03:45:10.544Z,9.60
2023-03-31T03:48:32.686Z,9.60
2023-03-31T03:51:54.680Z,9.70
2023-03-31T03:55:17.876Z,9.60
2023-03-31T03:58:39.854Z,9.60
2023-03-31T04:02:02.155Z,9.60
2023-03-31T04:05:24.370Z,9.60
2023-03-31T04:08:46.433Z,9.70
2023-03-31T04:12:08.587Z,9.70
2023-03-31T04:15:30.924Z,9.70
2023-03-31T04:18:56.952Z,9.70
2023-03-31T04:22:20.679Z,9.70
2023-03-31T04:25:46.471Z,9.80
2023-03-31T04:29:10.653Z,9.80
2023-03-31T04:32:33.176Z,9.80
2023-03-31T04:35:55.370Z,9.80
2023-03-31T04:39:27.032Z,9.80
2023-03-31T04:42:52.086Z,9.80
2023-03-31T04:46:14.488Z,9.70
2023-03-31T04:49:37.606Z,9.80
2023-03-31T04:52:59.964Z,9.90
2023-03-31T04:56:22.901Z,9.90
2023-03-31T04:59:44.968Z,9.90
2023-03-31T05:03:07.383Z,9.90
2023-03-31T05:06:30.104Z,10.00
2023-03-31T05:09:52.093Z,9.90
2023-03-31T05:13:14.912Z,9.80
2023-03-31T05:16:37.436Z,9.80
2023-03-31T05:20:00.130Z,9.90
2023-03-31T05:23:22.172Z,9.90
2023-03-31T05:26:49.870Z,9.90
2023-03-31T05:30:12.262Z,9.90
2023-03-31T05:33:34.677Z,9.90
2023-03-31T05:36:56.684Z,9.90
2023-03-31T05:40:18.800Z,9.90
2023-03-31T05:43:40.817Z,10.00
2023-03-31T05:47:02.853Z,10.00
2023-03-31T05:50:25.221Z,10.10
2023-03-31T05:53:47.851Z,10.10
2023-03-31T05:57:10.191Z,10.10
2023-03-31T06:00:32.478Z,10.10
2023-03-31T06:03:54.510Z,10.10
2023-03-31T06:07:17.886Z,10.20
2023-03-31T06:10:40.718Z,10.20
2023-03-31T06:14:02.724Z,10.30
2023-03-31T06:17:24.737Z,10.30
2023-03-31T06:20:46.771Z,10.30
2023-03-31T06:24:11.905Z,10.30
2023-03-31T06:27:33.869Z,10.30
2023-03-31T06:31:07.315Z,10.30
2023-03-31T06:34:29.566Z,10.30
2023-03-31T06:37:51.587Z,10.30
2023-03-31T06:41:15.650Z,10.30
2023-03-31T06:44:37.621Z,10.30
2023-03-31T06:47:59.728Z,10.30
2023-03-31T06:51:23.263Z,10.30
2023-03-31T06:54:45.783Z,10.40
2023-03-31T06:58:08.096Z,10.40
2023-03-31T07:01:31.689Z,10.40
2023-03-31T07:04:53.701Z,10.40
2023-03-31T07:08:17.801Z,10.50
2023-03-31T07:11:40.494Z,10.50
2023-03-31T07:15:02.559Z,10.60
2023-03-31T07:18:26.314Z,10.70
2023-03-31T07:21:48.717Z,10.80
2023-03-31T07:25:12.414Z,10.80
2023-03-31T07:28:34.466Z,10.80
2023-03-31T07:31:56.514Z,10.90
2023-03-31T07:35:23.101Z,10.90
2023-03-31T07:38:48.704Z,11.00
2023-03-31T07:42:10.832Z,11.10
2023-03-31T07:45:33.348Z,11.10
2023-03-31T07:48:57.054Z,11.10
2023-03-31T07:52:19.902Z,11.10
2023-03-31T07:55:41.937Z,11.20
2023-03-31T07:59:03.942Z,11.40
2023-03-31T08:02:26.297Z,11.50
2023-03-31T08:05:52.471Z,11.50
2023-03-31T08:09:14.547Z,11.50
2023-03-31T08:12:36.655Z,11.60
2023-03-31T08:15:58.913Z,11.70
2023-03-31T08:19:21.454Z,11.70
2023-03-31T08:22:43.423Z,11.80
2023-03-31T08:26:11.350Z,11.80
2023-03-31T08:29:34.318Z,12.00
2023-03-31T08:32:56.724Z,12.20
2023-03-31T08:36:19.044Z,12.30
2023-03-31T08:39:41.268Z,12.40
2023-03-31T08:43:10.536Z,12.40
2023-03-31T08:46:35.690Z,12.60
2023-03-31T08:50:11.583Z,12.70
2023-03-31T08:53:39.394Z,12.50
2023-03-31T08:57:03.145Z,12.60
2023-03-31T09:00:25.272Z,12.60
2023-03-31T09:04:14.566Z,12.80
2023-03-31T09:07:53.000Z,12.70
2023-03-31T09:11:30.617Z,12.50
2023-03-31T09:15:02.433Z,12.70
2023-03-31T09:18:33.005Z,12.60
2023-03-31T09:21:56.797Z,12.60
2023-03-31T09:25:31.398Z,12.50
2023-03-31T09:28:55.773Z,12.70
2023-03-31T09:32:20.831Z,13.00
2023-03-31T09:35:45.907Z,13.30
2023-03-31T09:39:13.857Z,13.20
2023-03-31T09:42:37.511Z,13.60
2023-03-31T09:46:09.338Z,13.60
2023-03-31T09:49:35.672Z,13.40
2023-03-31T09:53:00.892Z,13.50
2023-03-31T09:56:33.440Z,13.70
2023-03-31T10:00:17.001Z,13.60
2023-03-31T10:04:08.793Z,13.70
2023-03-31T10:07:31.298Z,14.10
2023-03-31T10:11:03.895Z,14.50
2023-03-31T10:14:41.743Z,14.50
2023-03-31T10:18:04.623Z,14.40
2023-03-31T10:21:35.307Z,14.50
2023-03-31T10:25:20.974Z,14.60
2023-03-31T10:28:43.862Z,15.00
2023-03-31T10:32:16.850Z,15.60
2023-03-31T10:35:40.142Z,14.90
2023-03-31T10:39:07.602Z,15.10
2023-03-31T10:42:29.555Z,15.10
2023-03-31T10:45:58.355Z,14.90
2023-03-31T10:49:27.824Z,15.00
2023-03-31T10:53:00.963Z,15.30
2023-03-31T10:56:38.460Z,15.50
2023-03-31T11:00:09.382Z,15.60
2023-03-31T11:03:41.173Z,15.80
2023-03-31T11:07:29.710Z,16.40
2023-03-31T11:11:18.109Z,17.60
2023-03-31T11:14:58.791Z,17.80
2023-03-31T11:18:39.074Z,18.30
2023-03-31T11:22:28.984Z,18.20
2023-03-31T11:26:05.890Z,18.60
2023-03-31T11:30:10.724Z,18.20
2023-03-31T11:33:55.615Z,17.80
2023-03-31T11:37:54.648Z,17.30
2023-03-31T11:41:51.081Z,17.60
2023-03-31T11:45:27.447Z,18.40
2023-03-31T11:49:19.773Z,18.80
2023-03-31T11:52:56.266Z,19.70
2023-03-31T11:56:20.556Z,19.20
2023-03-31T11:59:49.992Z,18.80
2023-03-31T12:03:20.198Z,18.60
2023-03-31T12:06:47.661Z,19.30
2023-03-31T12:10:22.458Z,20.10
2023-03-31T12:14:08.384Z,20.20
2023-03-31T12:17:31.155Z,19.70
2023-03-31T12:20:58.150Z,19.00
2023-03-31T12:24:20.401Z,18.30
2023-03-31T12:27:44.644Z,18.30
2023-03-31T12:31:14.374Z,18.60
2023-03-31T12:34:44.363Z,19.10
2023-03-31T12:38:44.180Z,19.70
2023-03-31T12:42:12.966Z,20.00
2023-03-31T12:45:51.179Z,20.50
2023-03-31T12:49:21.916Z,19.80
2023-03-31T12:53:20.601Z,20.10
2023-03-31T12:57:02.345Z,20.40
2023-03-31T13:00:30.484Z,19.90
2023-03-31T13:04:12.098Z,19.30
2023-03-31T13:07:41.415Z,19.30
2023-03-31T13:11:03.526Z,19.20
2023-03-31T13:14:38.802Z,19.10
2023-03-31T13:18:07.062Z,18.50
2023-03-31T13:21:29.635Z,18.80
2023-03-31T13:24:51.676Z,19.30
2023-03-31T13:28:23.071Z,18.80
2023-03-31T13:32:10.564Z,18.20
2023-03-31T13:35:35.074Z,17.60
2023-03-31T13:39:27.034Z,17.50
2023-03-31T13:43:01.155Z,17.40
2023-03-31T13:46:47.162Z,17.30
2023-03-31T13:50:57.930Z,17.20
2023-03-31T13:54:29.323Z,17.50
2023-03-31T13:58:11.404Z,17.60
2023-03-31T14:02:08.779Z,17.60
2023-03-31T14:05:54.966Z,17.40
2023-03-31T14:09:33.356Z,17.30
2023-03-31T14:13:05.487Z,17.50
2023-03-31T14:16:31.165Z,17.50
2023-03-31T14:20:18.857Z,17.10
2023-03-31T14:24:13.749Z,17.30
2023-03-31T14:27:54.121Z,17.30
2023-03-31T14:31:37.548Z,17.00
2023-03-31T14:35:24.010Z,16.90
2023-03-31T14:38:46.250Z,16.90
2023-03-31T14:42:15.166Z,16.80
2023-03-31T14:45:37.140Z,16.60
2023-03-31T14:48:59.268Z,17.30
2023-03-31T14:52:25.411Z,17.50
2023-03-31T14:55:58.184Z,17.70
2023-03-31T14:59:27.712Z,17.90
2023-03-31T15:02:52.095Z,17.50
2023-03-31T15:06:15.989Z,17.30
2023-03-31T15:09:38.810Z,17.00
2023-03-31T15:13:07.016Z,16.80
2023-03-31T15:16:39.019Z,16.70
2023-03-31T15:20:05.032Z,16.60
2023-03-31T15:23:28.588Z,16.60
2023-03-31T15:27:02.838Z,16.40
2023-03-31T15:30:27.523Z,16.60
2023-03-31T15:33:49.886Z,16.60
2023-03-31T15:37:12.062Z,16.50
2023-03-31T15:40:39.744Z,16.20
2023-03-31T15:44:30.370Z,16.30
2023-03-31T15:48:07.886Z,16.20
2023-03-31T15:51:44.071Z,16.20
2023-03-31T15:55:28.797Z,16.10
2023-03-31T15:58:55.848Z,16.00
2023-03-31T16:02:22.597Z,15.90
2023-03-31T16:05:58.353Z,15.80
2023-03-31T16:09:24.454Z,15.70
2023-03-31T16:12:55.374Z,15.80
2023-03-31T16:16:23.606Z,15.70
2023-03-31T16:20:11.251Z,15.70
2023-03-31T16:23:38.842Z,15.50
2023-03-31T16:27:07.882Z,15.50
2023-03-31T16:30:41.616Z,15.40
2023-03-31T16:34:07.268Z,15.20
2023-03-31T16:37:29.806Z,15.10
2023-03-31T16:40:57.764Z,15.00
2023-03-31T16:44:29.509Z,15.00
2023-03-31T16:47:54.661Z,14.80
2023-03-31T16:51:28.554Z,14.80
2023-03-31T16:54:50.571Z,14.80
2023-03-31T16:58:18.349Z,14.60
2023-03-31T17:01:44.314Z,14.60
2023-03-31T17:05:13.005Z,14.70
2023-03-31T17:08:39.370Z,14.70
2023-03-31T17:12:01.750Z,14.70
2023-03-31T17:15:23.916Z,14.50
2023-03-31T17:18:46.687Z,14.40
2023-03-31T17:22:09.763Z,14.40
2023-03-31T17:25:39.891Z,14.30
2023-03-31T17:29:06.209Z,14.10
2023-03-31T17:32:29.998Z,13.80
2023-03-31T17:35:58.534Z,13.60
2023-03-31T17:39:21.755Z,13.30
2023-03-31T17:42:44.785Z,13.00
2023-03-31T17:46:12.248Z,12.80
2023-03-31T17:49:35.086Z,12.50
2023-03-31T17:52:58.466Z,12.30
2023-03-31T17:56:20.748Z,12.10
2023-03-31T17:59:42.833Z,11.90
2023-03-31T18:03:07.778Z,11.70
2023-03-31T18:06:30.011Z,11.60
2023-03-31T18:09:52.066Z,11.50
2023-03-31T18:13:14.078Z,11.40
2023-03-31T18:16:37.427Z,11.30
2023-03-31T18:20:09.701Z,11.20
2023-03-31T18:23:38.746Z,11.20
2023-03-31T18:27:01.547Z,11.20
2023-03-31T18:30:23.698Z,11.20
2023-03-31T18:33:46.107Z,11.40
2023-03-31T18:37:25.642Z,11.40
2023-03-31T18:40:52.873Z,11.40
2023-03-31T18:44:18.229Z,11.30
2023-03-31T18:47:40.362Z,11.30
2023-03-31T18:51:07.435Z,11.30
2023-03-31T18:54:33.864Z,11.30
2023-03-31T18:57:56.557Z,11.30
2023-03-31T19:01:20.328Z,11.20
2023-03-31T19:04:45.706Z,11.10
2023-03-31T19:08:11.336Z,11.10
2023-03-31T19:11:33.857Z,11.00
2023-03-31T19:14:56.536Z,10.90
2023-03-31T19:18:20.305Z,11.00
2023-03-31T19:21:56.011Z,11.00
2023-03-31T19:25:22.169Z,11.10
2023-03-31T19:28:44.759Z,11.10
2023-03-31T19:32:13.204Z,11.10
2023-03-31T19:35:35.935Z,11.00
2023-03-31T19:38:58.449Z,10.80
2023-03-31T19:42:21.323Z,10.70
2023-03-31T19:45:47.193Z,10.50
2023-03-31T19:49:10.416Z,10.40
2023-03-31T19:52:33.198Z,10.40
2023-03-31T19:56:10.263Z,10.30
2023-03-31T19:59:32.972Z,10.30
2023-03-31T20:02:58.798Z,10.20
2023-03-31T20:06:24.334Z,10.10
2023-03-31T20:09:47.476Z,10.10
2023-03-31T20:13:10.947Z,10.00
2023-03-31T20:16:34.498Z,10.10
2023-03-31T20:20:00.304Z,10.00
2023-03-31T20:23:23.778Z,10.00
2023-03-31T20:26:47.049Z,9.90
2023-03-31T20:30:09.796Z,9.80
2023-03-31T20:33:32.414Z,9.80
2023-03-31T20:36:55.096Z,9.70
2023-03-31T20:40:20.401Z,9.60
2023-03-31T20:43:43.152Z,9.40
2023-03-31T20:47:05.988Z,9.30
2023-03-31T20:50:28.862Z,9.40
2023-03-31T20:53:53.401Z,9.30
2023-03-31T20:57:16.077Z,9.30
2023-03-31T21:00:41.953Z,9.30
2023-03-31T21:04:07.244Z,9.30
2023-03-31T21:07:29.918Z,9.30
2023-03-31T21:10:52.547Z,9.30
2023-03-31T21:14:15.986Z,9.30
2023-03-31T21:17:38.189Z,9.40
2023-03-31T21:21:03.877Z,9.50
2023-03-31T21:24:26.651Z,9.60
2023-03-31T21:27:48.626Z,9.70
2023-03-31T21:31:17.238Z,9.70
2023-03-31T21:34:39.276Z,9.60
2023-03-31T21:38:04.842Z,9.50
2023-03-31T21:41:30.098Z,9.40
2023-03-31T21:44:58.805Z,9.40
2023-03-31T21:48:25.079Z,9.30
2023-03-31T21:51:47.399Z,9.20
2023-03-31T21:55:09.721Z,9.10
2023-03-31T21:58:31.742Z,9.00
2023-03-31T22:01:53.721Z,8.90
2023-03-31T22:05:18.946Z,8.90
2023-03-31T22:08:42.111Z,8.90
2023-03-31T22:12:04.132Z,8.90
2023-03-31T22:15:26.368Z,8.80
2023-03-31T22:18:50.403Z,8.60
2023-03-31T22:22:12.732Z,8.50
2023-03-31T22:25:35.092Z,8.30
2023-03-31T22:28:58.247Z,8.30
2023-03-31T22:32:21.303Z,8.30
2023-03-31T22:35:44.426Z,8.30
2023-03-31T22:39:07.200Z,8.30
2023-03-31T22:42:30.252Z,8.30
2023-03-31T22:45:55.429Z,8.30
2023-03-31T22:49:17.928Z,8.40
2023-03-31T22:52:45.490Z,8.50
2023-03-31T22:56:16.033Z,8.70
2023-03-31T22:59:39.531Z,8.70
2023-03-31T23:03:02.411Z,8.70
2023-03-31T23:06:24.908Z,8.60
2023-03-31T23:09:47.062Z,8.50
2023-03-31T23:13:12.702Z,8.40
2023-03-31T23:16:35.378Z,8.20
2023-03-31T23:19:57.611Z,8.20
2023-03-31T23:23:21.541Z,8.00
2023-03-31T23:26:44.306Z,7.90
2023-03-31T23:30:07.983Z,7.90
2023-03-31T23:33:31.117Z,7.90
2023-03-31T23:36:53.757Z,7.80
2023-03-31T23:40:16.389Z,7.70
2023-03-31T23:43:43.266Z,7.70
2023-03-31T23:47:06.885Z,7.60
2023-03-31T23:50:29.340Z,7.50
2023-03-31T23:53:52.702Z,7.50
2023-03-31T23:57:15.957Z,7.50
